sensor_id;sensor_type;location;lat;lon;timestamp;temperature;humidity
3466;DHT22;1747;48.884;9.160;2023-10-09T00:01:03;14.10;99.90
3466;DHT22;1747;48.884;9.160;2023-10-09T00:03:35;14.00;99.90
3466;DHT22;1747;48.884;9.160;2023-10-09T00:06:03;14.00;99.90
3466;DHT22;1747;48.884;9.160;2023-10-09T00:08:30;14.00;99.90
3466;DHT22;1747;48.884;9.160;2023-10-09T00:11:01;14.00;99.90
3466;DHT22;1747;48.884;9.160;2023-10-09T00:13:42;13.90;99.90
3466;DHT22;1747;48.884;9.160;2023-10-09T00:16:20;13.90;99.90
3466;DHT22;1747;48.884;9.160;2023-10-09T00:18:58;13.90;99.90
3466;DHT22;1747;48.884;9.160;2023-10-09T00:21:39;13.90;99.90
3466;DHT22;1747;48.884;9.160;2023-10-09T00:24:06;13.80;99.90
3466;DHT22;1747;48.884;9.160;2023-10-09T00:26:39;13.80;99.90
3466;DHT22;1747;48.884;9.160;2023-10-09T00:29:11;13.70;99.90
3466;DHT22;1747;48.884;9.160;2023-10-09T00:31:42;13.70;99.90
3466;DHT22;1747;48.884;9.160;2023-10-09T00:34:15;13.70;99.90
3466;DHT22;1747;48.884;9.160;2023-10-09T00:36:45;13.70;99.90
3466;DHT22;1747;48.884;9.160;2023-10-09T00:39:16;13.70;99.90
3466;DHT22;1747;48.884;9.160;2023-10-09T00:41:57;13.70;99.90
3466;DHT22;1747;48.884;9.160;2023-10-09T00:44:26;13.70;99.90
3466;DHT22;1747;48.884;9.160;2023-10-09T00:47:06;13.70;99.90
3466;DHT22;1747;48.884;9.160;2023-10-09T00:49:47;13.60;99.90
3466;DHT22;1747;48.884;9.160;2023-10-09T00:52:15;13.70;99.90
3466;DHT22;1747;48.884;9.160;2023-10-09T00:54:52;13.60;99.90
3466;DHT22;1747;48.884;9.160;2023-10-09T00:57:28;13.60;99.90
3466;DHT22;1747;48.884;9.160;2023-10-09T00:59:58;13.60;99.90
3466;DHT22;1747;48.884;9.160;2023-10-09T01:02:28;13.60;99.90
3466;DHT22;1747;48.884;9.160;2023-10-09T01:05:03;13.60;99.90
3466;DHT22;1747;48.884;9.160;2023-10-09T01:07:45;13.60;99.90
3466;DHT22;1747;48.884;9.160;2023-10-09T01:10:13;13.60;99.90
3466;DHT22;1747;48.884;9.160;2023-10-09T01:13:01;13.60;99.90
3466;DHT22;1747;48.884;9.160;2023-10-09T01:15:29;13.60;99.90
3466;DHT22;1747;48.884;9.160;2023-10-09T01:18:10;13.60;99.90
3466;DHT22;1747;48.884;9.160;2023-10-09T01:20:38;13.60;99.90
3466;DHT22;1747;48.884;9.160;2023-10-09T01:23:12;13.70;99.90
3466;DHT22;1747;48.884;9.160;2023-10-09T01:25:39;13.70;99.90
3466;DHT22;1747;48.884;9.160;2023-10-09T01:28:15;13.70;99.90
3466;DHT22;1747;48.884;9.160;2023-10-09T01:30:45;13.80;99.90
3466;DHT22;1747;48.884;9.160;2023-10-09T01:33:13;13.70;99.90
3466;DHT22;1747;48.884;9.160;2023-10-09T01:35:48;13.70;99.90
3466;DHT22;1747;48.884;9.160;2023-10-09T01:38:18;13.80;99.90
3466;DHT22;1747;48.884;9.160;2023-10-09T01:40:56;13.80;99.90
3466;DHT22;1747;48.884;9.160;2023-10-09T01:43:29;13.80;99.90
3466;DHT22;1747;48.884;9.160;2023-10-09T01:45:57;13.90;99.90
3466;DHT22;1747;48.884;9.160;2023-10-09T01:48:26;14.00;99.90
3466;DHT22;1747;48.884;9.160;2023-10-09T01:50:53;14.00;99.90
3466;DHT22;1747;48.884;9.160;2023-10-09T01:53:22;14.00;99.90
3466;DHT22;1747;48.884;9.160;2023-10-09T01:55:53;14.00;99.90
3466;DHT22;1747;48.884;9.160;2023-10-09T01:58:21;14.00;99.90
3466;DHT22;1747;48.884;9.160;2023-10-09T02:00:57;14.00;99.90
3466;DHT22;1747;48.884;9.160;2023-10-09T02:03:28;14.00;99.90
3466;DHT22;1747;48.884;9.160;2023-10-09T02:05:56;14.10;99.90
3466;DHT22;1747;48.884;9.160;2023-10-09T02:08:26;14.10;99.90
3466;DHT22;1747;48.884;9.160;2023-10-09T02:11:01;14.10;99.90
3466;DHT22;1747;48.884;9.160;2023-10-09T02:13:29;14.10;99.90
3466;DHT22;1747;48.884;9.160;2023-10-09T02:16:00;14.20;99.90
3466;DHT22;1747;48.884;9.160;2023-10-09T02:18:39;14.10;99.90
3466;DHT22;1747;48.884;9.160;2023-10-09T02:21:19;14.10;99.90
3466;DHT22;1747;48.884;9.160;2023-10-09T02:24:01;14.20;99.90
3466;DHT22;1747;48.884;9.160;2023-10-09T02:26:34;14.20;99.90
3466;DHT22;1747;48.884;9.160;2023-10-09T02:29:27;14.20;99.90
3466;DHT22;1747;48.884;9.160;2023-10-09T02:31:53;14.20;99.90
3466;DHT22;1747;48.884;9.160;2023-10-09T02:34:26;14.20;99.90
3466;DHT22;1747;48.884;9.160;2023-10-09T02:36:53;14.30;99.90
3466;DHT22;1747;48.884;9.160;2023-10-09T02:39:32;14.20;99.90
3466;DHT22;1747;48.884;9.160;2023-10-09T02:42:10;14.20;99.90
3466;DHT22;1747;48.884;9.160;2023-10-09T02:44:50;14.20;99.90
3466;DHT22;1747;48.884;9.160;2023-10-09T02:47:17;14.30;99.90
3466;DHT22;1747;48.884;9.160;2023-10-09T02:49:46;14.30;99.90
3466;DHT22;1747;48.884;9.160;2023-10-09T02:52:15;14.30;99.90
3466;DHT22;1747;48.884;9.160;2023-10-09T02:54:45;14.30;99.90
3466;DHT22;1747;48.884;9.160;2023-10-09T02:57:13;14.30;99.90
3466;DHT22;1747;48.884;9.160;2023-10-09T02:59:47;14.30;99.90
3466;DHT22;1747;48.884;9.160;2023-10-09T03:02:17;14.30;99.90
3466;DHT22;1747;48.884;9.160;2023-10-09T03:04:44;14.30;99.90
3466;DHT22;1747;48.884;9.160;2023-10-09T03:07:11;14.30;99.90
3466;DHT22;1747;48.884;9.160;2023-10-09T03:09:39;14.30;99.90
3466;DHT22;1747;48.884;9.160;2023-10-09T03:12:07;14.40;99.90
3466;DHT22;1747;48.884;9.160;2023-10-09T03:14:38;14.40;99.90
3466;DHT22;1747;48.884;9.160;2023-10-09T03:17:05;14.40;99.90
3466;DHT22;1747;48.884;9.160;2023-10-09T03:19:37;14.40;99.90
3466;DHT22;1747;48.884;9.160;2023-10-09T03:22:04;14.40;99.90
3466;DHT22;1747;48.884;9.160;2023-10-09T03:24:34;14.40;99.90
3466;DHT22;1747;48.884;9.160;2023-10-09T03:27:02;14.40;99.90
3466;DHT22;1747;48.884;9.160;2023-10-09T03:29:30;14.50;99.90
3466;DHT22;1747;48.884;9.160;2023-10-09T03:31:57;14.50;99.90
3466;DHT22;1747;48.884;9.160;2023-10-09T03:34:25;14.40;99.90
3466;DHT22;1747;48.884;9.160;2023-10-09T03:36:53;14.40;99.90
3466;DHT22;1747;48.884;9.160;2023-10-09T03:39:30;14.40;99.90
3466;DHT22;1747;48.884;9.160;2023-10-09T03:42:04;14.40;99.90
3466;DHT22;1747;48.884;9.160;2023-10-09T03:44:32;14.50;99.90
3466;DHT22;1747;48.884;9.160;2023-10-09T03:47:04;14.50;99.90
3466;DHT22;1747;48.884;9.160;2023-10-09T03:49:34;14.40;99.90
3466;DHT22;1747;48.884;9.160;2023-10-09T03:52:04;14.50;99.90
3466;DHT22;1747;48.884;9.160;2023-10-09T03:54:32;14.40;99.90
3466;DHT22;1747;48.884;9.160;2023-10-09T03:57:00;14.40;99.90
3466;DHT22;1747;48.884;9.160;2023-10-09T03:59:28;14.40;99.90
3466;DHT22;1747;48.884;9.160;2023-10-09T04:01:59;14.40;99.90
3466;DHT22;1747;48.884;9.160;2023-10-09T04:04:26;14.30;99.90
3466;DHT22;1747;48.884;9.160;2023-10-09T04:06:54;14.30;99.90
3466;DHT22;1747;48.884;9.160;2023-10-09T04:09:21;14.20;99.90
3466;DHT22;1747;48.884;9.160;2023-10-09T04:12:05;14.20;99.90
3466;DHT22;1747;48.884;9.160;2023-10-09T04:14:50;14.20;99.90
3466;DHT22;1747;48.884;9.160;2023-10-09T04:17:21;14.20;99.90
3466;DHT22;1747;48.884;9.160;2023-10-09T04:20:00;14.20;99.90
3466;DHT22;1747;48.884;9.160;2023-10-09T04:22:56;14.20;99.90
3466;DHT22;1747;48.884;9.160;2023-10-09T04:25:31;14.20;99.90
3466;DHT22;1747;48.884;9.160;2023-10-09T04:28:08;14.20;99.90
3466;DHT22;1747;48.884;9.160;2023-10-09T04:30:37;14.20;99.90
3466;DHT22;1747;48.884;9.160;2023-10-09T04:33:09;14.20;99.90
3466;DHT22;1747;48.884;9.160;2023-10-09T04:35:53;14.20;99.90
3466;DHT22;1747;48.884;9.160;2023-10-09T04:38:34;14.20;99.90
3466;DHT22;1747;48.884;9.160;2023-10-09T04:41:05;14.20;99.90
3466;DHT22;1747;48.884;9.160;2023-10-09T04:43:33;14.20;99.90
3466;DHT22;1747;48.884;9.160;2023-10-09T04:45:59;14.20;99.90
3466;DHT22;1747;48.884;9.160;2023-10-09T04:48:34;14.10;99.90
3466;DHT22;1747;48.884;9.160;2023-10-09T04:51:04;14.10;99.90
3466;DHT22;1747;48.884;9.160;2023-10-09T04:54:01;14.10;99.90
3466;DHT22;1747;48.884;9.160;2023-10-09T04:56:39;14.10;99.90
3466;DHT22;1747;48.884;9.160;2023-10-09T04:59:18;14.10;99.90
3466;DHT22;1747;48.884;9.160;2023-10-09T05:01:50;14.10;99.90
3466;DHT22;1747;48.884;9.160;2023-10-09T05:04:25;14.10;99.90
3466;DHT22;1747;48.884;9.160;2023-10-09T05:07:06;14.10;99.90
3466;DHT22;1747;48.884;9.160;2023-10-09T05:09:47;14.10;99.90
3466;DHT22;1747;48.884;9.160;2023-10-09T05:12:31;14.10;99.90
3466;DHT22;1747;48.884;9.160;2023-10-09T05:14:57;14.20;99.90
3466;DHT22;1747;48.884;9.160;2023-10-09T05:17:34;14.20;99.90
3466;DHT22;1747;48.884;9.160;2023-10-09T05:20:07;14.20;99.90
3466;DHT22;1747;48.884;9.160;2023-10-09T05:22:53;14.20;99.90
3466;DHT22;1747;48.884;9.160;2023-10-09T05:25:24;14.20;99.90
3466;DHT22;1747;48.884;9.160;2023-10-09T05:28:18;14.20;99.90
3466;DHT22;1747;48.884;9.160;2023-10-09T05:30:51;14.20;99.90
3466;DHT22;1747;48.884;9.160;2023-10-09T05:33:28;14.30;99.90
3466;DHT22;1747;48.884;9.160;2023-10-09T05:35:55;14.20;99.90
3466;DHT22;1747;48.884;9.160;2023-10-09T05:38:40;14.20;99.90
3466;DHT22;1747;48.884;9.160;2023-10-09T05:41:12;14.20;99.90
3466;DHT22;1747;48.884;9.160;2023-10-09T05:43:56;14.20;99.90
3466;DHT22;1747;48.884;9.160;2023-10-09T05:46:41;14.30;99.90
3466;DHT22;1747;48.884;9.160;2023-10-09T05:49:28;14.30;99.90
3466;DHT22;1747;48.884;9.160;2023-10-09T05:52:13;14.30;99.90
3466;DHT22;1747;48.884;9.160;2023-10-09T05:55:09;14.30;99.90
3466;DHT22;1747;48.884;9.160;2023-10-09T05:58:01;14.20;99.90
3466;DHT22;1747;48.884;9.160;2023-10-09T06:00:46;14.10;99.90
3466;DHT22;1747;48.884;9.160;2023-10-09T06:03:30;14.10;99.90
3466;DHT22;1747;48.884;9.160;2023-10-09T06:06:14;14.10;99.90
3466;DHT22;1747;48.884;9.160;2023-10-09T06:09:02;14.20;99.90
3466;DHT22;1747;48.884;9.160;2023-10-09T06:11:48;14.20;99.90
3466;DHT22;1747;48.884;9.160;2023-10-09T06:14:22;14.30;99.90
3466;DHT22;1747;48.884;9.160;2023-10-09T06:16:52;14.30;99.90
3466;DHT22;1747;48.884;9.160;2023-10-09T06:19:48;14.40;99.90
3466;DHT22;1747;48.884;9.160;2023-10-09T06:22:15;14.40;99.90
3466;DHT22;1747;48.884;9.160;2023-10-09T06:25:12;14.40;99.90
3466;DHT22;1747;48.884;9.160;2023-10-09T06:27:44;14.50;99.90
3466;DHT22;1747;48.884;9.160;2023-10-09T06:30:27;14.40;99.90
3466;DHT22;1747;48.884;9.160;2023-10-09T06:32:54;14.50;99.90
3466;DHT22;1747;48.884;9.160;2023-10-09T06:35:47;14.50;99.90
3466;DHT22;1747;48.884;9.160;2023-10-09T06:38:20;14.60;99.90
3466;DHT22;1747;48.884;9.160;2023-10-09T06:41:01;14.70;99.90
3466;DHT22;1747;48.884;9.160;2023-10-09T06:44:00;14.80;99.90
3466;DHT22;1747;48.884;9.160;2023-10-09T06:46:31;14.80;99.90
3466;DHT22;1747;48.884;9.160;2023-10-09T06:49:10;14.80;99.90
3466;DHT22;1747;48.884;9.160;2023-10-09T06:51:54;14.90;99.90
3466;DHT22;1747;48.884;9.160;2023-10-09T06:54:39;15.00;99.90
3466;DHT22;1747;48.884;9.160;2023-10-09T06:57:17;15.10;99.90
3466;DHT22;1747;48.884;9.160;2023-10-09T07:00:06;15.10;99.90
3466;DHT22;1747;48.884;9.160;2023-10-09T07:02:51;15.20;99.90
3466;DHT22;1747;48.884;9.160;2023-10-09T07:05:19;15.30;99.90
3466;DHT22;1747;48.884;9.160;2023-10-09T07:07:44;15.30;99.90
3466;DHT22;1747;48.884;9.160;2023-10-09T07:10:21;15.40;99.90
3466;DHT22;1747;48.884;9.160;2023-10-09T07:12:59;15.50;99.90
3466;DHT22;1747;48.884;9.160;2023-10-09T07:15:27;15.50;99.90
3466;DHT22;1747;48.884;9.160;2023-10-09T07:18:08;15.60;99.90
3466;DHT22;1747;48.884;9.160;2023-10-09T07:20:51;15.60;99.90
3466;DHT22;1747;48.884;9.160;2023-10-09T07:23:37;15.70;99.90
3466;DHT22;1747;48.884;9.160;2023-10-09T07:26:13;15.70;99.90
3466;DHT22;1747;48.884;9.160;2023-10-09T07:28:50;15.70;99.90
3466;DHT22;1747;48.884;9.160;2023-10-09T07:31:26;15.70;99.90
3466;DHT22;1747;48.884;9.160;2023-10-09T07:33:55;15.80;99.90
3466;DHT22;1747;48.884;9.160;2023-10-09T07:36:25;15.80;99.90
3466;DHT22;1747;48.884;9.160;2023-10-09T07:39:01;15.90;99.90
3466;DHT22;1747;48.884;9.160;2023-10-09T07:41:32;15.90;99.90
3466;DHT22;1747;48.884;9.160;2023-10-09T07:44:06;16.00;99.90
3466;DHT22;1747;48.884;9.160;2023-10-09T07:46:50;16.00;99.90
3466;DHT22;1747;48.884;9.160;2023-10-09T07:49:39;16.10;99.90
3466;DHT22;1747;48.884;9.160;2023-10-09T07:52:05;16.20;99.90
3466;DHT22;1747;48.884;9.160;2023-10-09T07:54:32;16.40;99.90
3466;DHT22;1747;48.884;9.160;2023-10-09T07:56:59;16.40;99.90
3466;DHT22;1747;48.884;9.160;2023-10-09T07:59:35;16.50;99.90
3466;DHT22;1747;48.884;9.160;2023-10-09T08:02:07;16.50;99.90
3466;DHT22;1747;48.884;9.160;2023-10-09T08:04:39;16.60;99.90
3466;DHT22;1747;48.884;9.160;2023-10-09T08:07:15;16.60;99.90
3466;DHT22;1747;48.884;9.160;2023-10-09T08:09:51;16.70;99.90
3466;DHT22;1747;48.884;9.160;2023-10-09T08:12:44;16.80;99.90
3466;DHT22;1747;48.884;9.160;2023-10-09T08:15:26;16.90;99.90
3466;DHT22;1747;48.884;9.160;2023-10-09T08:18:00;17.00;99.90
3466;DHT22;1747;48.884;9.160;2023-10-09T08:20:36;17.10;99.90
3466;DHT22;1747;48.884;9.160;2023-10-09T08:23:17;17.20;99.90
3466;DHT22;1747;48.884;9.160;2023-10-09T08:25:59;17.40;99.90
3466;DHT22;1747;48.884;9.160;2023-10-09T08:28:36;17.50;99.90
3466;DHT22;1747;48.884;9.160;2023-10-09T08:31:09;17.60;99.90
3466;DHT22;1747;48.884;9.160;2023-10-09T08:34:00;17.70;99.90
3466;DHT22;1747;48.884;9.160;2023-10-09T08:36:27;17.80;99.90
3466;DHT22;1747;48.884;9.160;2023-10-09T08:39:02;17.90;99.90
3466;DHT22;1747;48.884;9.160;2023-10-09T08:41:42;18.00;99.90
3466;DHT22;1747;48.884;9.160;2023-10-09T08:44:11;18.00;99.90
3466;DHT22;1747;48.884;9.160;2023-10-09T08:46:42;18.10;99.90
3466;DHT22;1747;48.884;9.160;2023-10-09T08:49:10;18.20;99.90
3466;DHT22;1747;48.884;9.160;2023-10-09T08:51:38;18.30;99.90
3466;DHT22;1747;48.884;9.160;2023-10-09T08:54:07;18.40;99.90
3466;DHT22;1747;48.884;9.160;2023-10-09T08:56:37;18.50;99.90
3466;DHT22;1747;48.884;9.160;2023-10-09T08:59:05;18.60;99.90
3466;DHT22;1747;48.884;9.160;2023-10-09T09:01:32;18.60;99.90
3466;DHT22;1747;48.884;9.160;2023-10-09T09:04:01;18.70;99.90
3466;DHT22;1747;48.884;9.160;2023-10-09T09:06:36;18.70;99.90
3466;DHT22;1747;48.884;9.160;2023-10-09T09:09:10;18.70;99.90
3466;DHT22;1747;48.884;9.160;2023-10-09T09:11:40;18.80;99.90
3466;DHT22;1747;48.884;9.160;2023-10-09T09:14:14;18.80;99.90
3466;DHT22;1747;48.884;9.160;2023-10-09T09:16:45;18.90;99.90
3466;DHT22;1747;48.884;9.160;2023-10-09T09:19:15;19.00;99.90
3466;DHT22;1747;48.884;9.160;2023-10-09T09:21:48;19.10;99.90
3466;DHT22;1747;48.884;9.160;2023-10-09T09:24:20;19.20;99.90
3466;DHT22;1747;48.884;9.160;2023-10-09T09:27:00;19.30;99.90
3466;DHT22;1747;48.884;9.160;2023-10-09T09:29:39;19.40;99.90
3466;DHT22;1747;48.884;9.160;2023-10-09T09:32:09;19.50;99.90
3466;DHT22;1747;48.884;9.160;2023-10-09T09:34:48;19.60;99.90
3466;DHT22;1747;48.884;9.160;2023-10-09T09:37:19;19.70;99.90
3466;DHT22;1747;48.884;9.160;2023-10-09T09:39:46;19.80;99.90
3466;DHT22;1747;48.884;9.160;2023-10-09T09:42:17;19.90;99.90
3466;DHT22;1747;48.884;9.160;2023-10-09T09:44:51;20.10;99.90
3466;DHT22;1747;48.884;9.160;2023-10-09T09:47:18;20.20;99.90
3466;DHT22;1747;48.884;9.160;2023-10-09T09:49:54;20.30;99.90
3466;DHT22;1747;48.884;9.160;2023-10-09T09:52:26;20.50;99.90
3466;DHT22;1747;48.884;9.160;2023-10-09T09:54:53;20.60;99.90
3466;DHT22;1747;48.884;9.160;2023-10-09T09:57:23;20.70;99.90
3466;DHT22;1747;48.884;9.160;2023-10-09T09:59:52;20.90;99.90
3466;DHT22;1747;48.884;9.160;2023-10-09T10:02:26;21.00;99.90
3466;DHT22;1747;48.884;9.160;2023-10-09T10:04:59;21.20;99.90
3466;DHT22;1747;48.884;9.160;2023-10-09T10:07:31;21.40;99.90
3466;DHT22;1747;48.884;9.160;2023-10-09T10:10:35;21.50;99.90
3466;DHT22;1747;48.884;9.160;2023-10-09T10:13:04;21.70;99.90
3466;DHT22;1747;48.884;9.160;2023-10-09T10:16:05;21.80;99.90
3466;DHT22;1747;48.884;9.160;2023-10-09T10:18:56;22.00;99.90
3466;DHT22;1747;48.884;9.160;2023-10-09T10:21:34;22.10;99.90
3466;DHT22;1747;48.884;9.160;2023-10-09T10:24:41;22.30;99.90
3466;DHT22;1747;48.884;9.160;2023-10-09T10:27:21;22.50;99.90
3466;DHT22;1747;48.884;9.160;2023-10-09T10:30:28;22.60;99.90
3466;DHT22;1747;48.884;9.160;2023-10-09T10:33:02;22.80;99.90
3466;DHT22;1747;48.884;9.160;2023-10-09T10:35:38;22.90;99.90
3466;DHT22;1747;48.884;9.160;2023-10-09T10:38:32;23.00;99.90
3466;DHT22;1747;48.884;9.160;2023-10-09T10:41:09;23.10;99.90
3466;DHT22;1747;48.884;9.160;2023-10-09T10:43:37;23.10;99.90
3466;DHT22;1747;48.884;9.160;2023-10-09T10:46:21;23.10;99.90
3466;DHT22;1747;48.884;9.160;2023-10-09T10:48:56;23.20;99.90
3466;DHT22;1747;48.884;9.160;2023-10-09T10:51:25;23.20;99.90
3466;DHT22;1747;48.884;9.160;2023-10-09T10:54:02;23.30;99.90
3466;DHT22;1747;48.884;9.160;2023-10-09T10:56:42;23.30;99.90
3466;DHT22;1747;48.884;9.160;2023-10-09T10:59:10;23.30;99.90
3466;DHT22;1747;48.884;9.160;2023-10-09T11:01:48;23.30;99.90
3466;DHT22;1747;48.884;9.160;2023-10-09T11:04:25;23.40;99.90
3466;DHT22;1747;48.884;9.160;2023-10-09T11:07:07;23.50;99.90
3466;DHT22;1747;48.884;9.160;2023-10-09T11:09:45;23.60;99.90
3466;DHT22;1747;48.884;9.160;2023-10-09T11:12:26;23.70;99.90
3466;DHT22;1747;48.884;9.160;2023-10-09T11:15:04;23.90;99.70
3466;DHT22;1747;48.884;9.160;2023-10-09T11:17:44;24.20;98.80
3466;DHT22;1747;48.884;9.160;2023-10-09T11:20:12;24.50;97.80
3466;DHT22;1747;48.884;9.160;2023-10-09T11:22:51;24.70;97.40
3466;DHT22;1747;48.884;9.160;2023-10-09T11:25:43;24.50;96.90
3466;DHT22;1747;48.884;9.160;2023-10-09T11:28:17;24.40;96.60
3466;DHT22;1747;48.884;9.160;2023-10-09T11:30:58;24.30;96.70
3466;DHT22;1747;48.884;9.160;2023-10-09T11:33:43;24.20;96.30
3466;DHT22;1747;48.884;9.160;2023-10-09T11:36:09;24.20;95.80
3466;DHT22;1747;48.884;9.160;2023-10-09T11:38:37;24.00;96.10
3466;DHT22;1747;48.884;9.160;2023-10-09T11:41:13;23.90;96.60
3466;DHT22;1747;48.884;9.160;2023-10-09T11:43:49;23.90;96.70
3466;DHT22;1747;48.884;9.160;2023-10-09T11:46:19;23.70;96.60
3466;DHT22;1747;48.884;9.160;2023-10-09T11:49:14;23.70;96.60
3466;DHT22;1747;48.884;9.160;2023-10-09T11:52:05;23.80;96.00
3466;DHT22;1747;48.884;9.160;2023-10-09T11:55:02;23.90;95.50
3466;DHT22;1747;48.884;9.160;2023-10-09T11:57:30;24.00;95.30
3466;DHT22;1747;48.884;9.160;2023-10-09T11:59:57;24.00;95.50
3466;DHT22;1747;48.884;9.160;2023-10-09T12:02:25;24.00;94.90
3466;DHT22;1747;48.884;9.160;2023-10-09T12:04:53;23.90;94.80
3466;DHT22;1747;48.884;9.160;2023-10-09T12:07:22;23.90;95.00
3466;DHT22;1747;48.884;9.160;2023-10-09T12:09:50;23.90;95.00
3466;DHT22;1747;48.884;9.160;2023-10-09T12:12:22;23.90;94.90
3466;DHT22;1747;48.884;9.160;2023-10-09T12:14:53;23.90;94.90
3466;DHT22;1747;48.884;9.160;2023-10-09T12:17:20;24.00;94.80
3466;DHT22;1747;48.884;9.160;2023-10-09T12:19:50;24.10;94.60
3466;DHT22;1747;48.884;9.160;2023-10-09T12:22:17;24.10;94.00
3466;DHT22;1747;48.884;9.160;2023-10-09T12:24:47;24.20;94.20
3466;DHT22;1747;48.884;9.160;2023-10-09T12:27:14;24.40;94.10
3466;DHT22;1747;48.884;9.160;2023-10-09T12:29:46;24.60;93.90
3466;DHT22;1747;48.884;9.160;2023-10-09T12:32:14;24.80;93.70
3466;DHT22;1747;48.884;9.160;2023-10-09T12:34:45;25.00;93.60
3466;DHT22;1747;48.884;9.160;2023-10-09T12:37:16;25.20;93.20
3466;DHT22;1747;48.884;9.160;2023-10-09T12:39:46;25.30;92.70
3466;DHT22;1747;48.884;9.160;2023-10-09T12:42:13;25.40;92.10
3466;DHT22;1747;48.884;9.160;2023-10-09T12:44:42;25.40;92.10
3466;DHT22;1747;48.884;9.160;2023-10-09T12:47:10;25.40;91.70
3466;DHT22;1747;48.884;9.160;2023-10-09T12:49:39;25.50;91.80
3466;DHT22;1747;48.884;9.160;2023-10-09T12:52:06;25.60;91.50
3466;DHT22;1747;48.884;9.160;2023-10-09T12:54:41;25.60;91.60
3466;DHT22;1747;48.884;9.160;2023-10-09T12:57:09;25.50;91.20
3466;DHT22;1747;48.884;9.160;2023-10-09T12:59:39;25.40;90.90
3466;DHT22;1747;48.884;9.160;2023-10-09T13:02:11;25.50;91.40
3466;DHT22;1747;48.884;9.160;2023-10-09T13:04:40;25.50;90.90
3466;DHT22;1747;48.884;9.160;2023-10-09T13:07:08;25.70;90.80
3466;DHT22;1747;48.884;9.160;2023-10-09T13:09:34;26.10;90.50
3466;DHT22;1747;48.884;9.160;2023-10-09T13:12:08;26.50;90.10
3466;DHT22;1747;48.884;9.160;2023-10-09T13:14:34;26.90;90.10
3466;DHT22;1747;48.884;9.160;2023-10-09T13:17:01;27.20;88.90
3466;DHT22;1747;48.884;9.160;2023-10-09T13:19:35;27.50;86.80
3466;DHT22;1747;48.884;9.160;2023-10-09T13:22:03;27.90;85.80
3466;DHT22;1747;48.884;9.160;2023-10-09T13:24:38;28.20;84.20
3466;DHT22;1747;48.884;9.160;2023-10-09T13:27:05;28.50;82.50
3466;DHT22;1747;48.884;9.160;2023-10-09T13:29:35;29.00;82.20
3466;DHT22;1747;48.884;9.160;2023-10-09T13:32:05;29.60;78.30
3466;DHT22;1747;48.884;9.160;2023-10-09T13:34:39;30.00;76.30
3466;DHT22;1747;48.884;9.160;2023-10-09T13:37:11;30.50;69.70
3466;DHT22;1747;48.884;9.160;2023-10-09T13:39:39;31.00;64.70
3466;DHT22;1747;48.884;9.160;2023-10-09T13:42:18;31.40;64.40
3466;DHT22;1747;48.884;9.160;2023-10-09T13:44:44;31.70;60.70
3466;DHT22;1747;48.884;9.160;2023-10-09T13:47:14;31.90;58.60
3466;DHT22;1747;48.884;9.160;2023-10-09T13:49:47;32.10;55.50
3466;DHT22;1747;48.884;9.160;2023-10-09T13:52:17;32.30;52.20
3466;DHT22;1747;48.884;9.160;2023-10-09T13:54:44;32.60;53.00
3466;DHT22;1747;48.884;9.160;2023-10-09T13:57:15;33.00;54.80
3466;DHT22;1747;48.884;9.160;2023-10-09T13:59:48;33.30;53.10
3466;DHT22;1747;48.884;9.160;2023-10-09T14:02:16;33.40;51.10
3466;DHT22;1747;48.884;9.160;2023-10-09T14:04:47;33.30;50.20
3466;DHT22;1747;48.884;9.160;2023-10-09T14:07:14;33.10;49.60
3466;DHT22;1747;48.884;9.160;2023-10-09T14:09:47;32.70;50.40
3466;DHT22;1747;48.884;9.160;2023-10-09T14:12:32;32.70;52.50
3466;DHT22;1747;48.884;9.160;2023-10-09T14:15:00;32.30;52.20
3466;DHT22;1747;48.884;9.160;2023-10-09T14:17:29;31.90;54.20
3466;DHT22;1747;48.884;9.160;2023-10-09T14:19:57;31.70;52.40
3466;DHT22;1747;48.884;9.160;2023-10-09T14:22:45;31.30;53.90
3466;DHT22;1747;48.884;9.160;2023-10-09T14:25:19;30.90;54.10
3466;DHT22;1747;48.884;9.160;2023-10-09T14:27:47;30.60;53.30
3466;DHT22;1747;48.884;9.160;2023-10-09T14:30:14;30.30;52.60
3466;DHT22;1747;48.884;9.160;2023-10-09T14:32:48;29.80;51.60
3466;DHT22;1747;48.884;9.160;2023-10-09T14:35:21;29.60;53.80
3466;DHT22;1747;48.884;9.160;2023-10-09T14:37:55;29.50;53.90
3466;DHT22;1747;48.884;9.160;2023-10-09T14:40:24;29.40;53.20
3466;DHT22;1747;48.884;9.160;2023-10-09T14:42:57;29.40;53.00
3466;DHT22;1747;48.884;9.160;2023-10-09T14:45:24;29.20;55.30
3466;DHT22;1747;48.884;9.160;2023-10-09T14:47:52;28.90;54.90
3466;DHT22;1747;48.884;9.160;2023-10-09T14:50:20;28.60;53.80
3466;DHT22;1747;48.884;9.160;2023-10-09T14:52:48;28.30;54.00
3466;DHT22;1747;48.884;9.160;2023-10-09T14:55:16;28.00;53.80
3466;DHT22;1747;48.884;9.160;2023-10-09T14:57:52;27.80;55.80
3466;DHT22;1747;48.884;9.160;2023-10-09T15:00:19;27.70;57.40
3466;DHT22;1747;48.884;9.160;2023-10-09T15:02:49;27.60;57.00
3466;DHT22;1747;48.884;9.160;2023-10-09T15:05:17;27.60;57.10
3466;DHT22;1747;48.884;9.160;2023-10-09T15:07:44;27.70;57.70
3466;DHT22;1747;48.884;9.160;2023-10-09T15:10:12;27.60;58.80
3466;DHT22;1747;48.884;9.160;2023-10-09T15:12:41;27.60;59.20
3466;DHT22;1747;48.884;9.160;2023-10-09T15:15:10;27.50;60.30
3466;DHT22;1747;48.884;9.160;2023-10-09T15:17:39;27.50;60.10
3466;DHT22;1747;48.884;9.160;2023-10-09T15:20:10;27.40;60.10
3466;DHT22;1747;48.884;9.160;2023-10-09T15:22:40;27.20;60.40
3466;DHT22;1747;48.884;9.160;2023-10-09T15:25:08;27.10;60.70
3466;DHT22;1747;48.884;9.160;2023-10-09T15:27:35;27.00;61.10
3466;DHT22;1747;48.884;9.160;2023-10-09T15:30:06;26.90;61.10
3466;DHT22;1747;48.884;9.160;2023-10-09T15:32:35;26.80;61.70
3466;DHT22;1747;48.884;9.160;2023-10-09T15:35:02;26.70;61.60
3466;DHT22;1747;48.884;9.160;2023-10-09T15:37:29;26.60;61.40
3466;DHT22;1747;48.884;9.160;2023-10-09T15:39:56;26.40;61.40
3466;DHT22;1747;48.884;9.160;2023-10-09T15:42:23;26.40;63.00
3466;DHT22;1747;48.884;9.160;2023-10-09T15:44:52;26.30;65.40
3466;DHT22;1747;48.884;9.160;2023-10-09T15:47:21;26.20;68.90
3466;DHT22;1747;48.884;9.160;2023-10-09T15:49:49;26.00;70.90
3466;DHT22;1747;48.884;9.160;2023-10-09T15:52:19;25.90;71.10
3466;DHT22;1747;48.884;9.160;2023-10-09T15:54:52;25.80;71.10
3466;DHT22;1747;48.884;9.160;2023-10-09T15:57:19;25.70;72.20
3466;DHT22;1747;48.884;9.160;2023-10-09T15:59:47;25.50;72.20
3466;DHT22;1747;48.884;9.160;2023-10-09T16:02:14;25.40;71.90
3466;DHT22;1747;48.884;9.160;2023-10-09T16:04:42;25.30;74.10
3466;DHT22;1747;48.884;9.160;2023-10-09T16:07:11;25.20;73.90
3466;DHT22;1747;48.884;9.160;2023-10-09T16:09:40;25.10;74.60
3466;DHT22;1747;48.884;9.160;2023-10-09T16:12:07;25.00;75.60
3466;DHT22;1747;48.884;9.160;2023-10-09T16:14:35;24.90;79.00
3466;DHT22;1747;48.884;9.160;2023-10-09T16:17:06;24.70;81.40
3466;DHT22;1747;48.884;9.160;2023-10-09T16:19:35;24.60;82.50
3466;DHT22;1747;48.884;9.160;2023-10-09T16:22:02;24.40;82.50
3466;DHT22;1747;48.884;9.160;2023-10-09T16:24:31;24.20;83.40
3466;DHT22;1747;48.884;9.160;2023-10-09T16:26:58;24.00;83.20
3466;DHT22;1747;48.884;9.160;2023-10-09T16:29:25;23.80;83.80
3466;DHT22;1747;48.884;9.160;2023-10-09T16:31:53;23.70;84.70
3466;DHT22;1747;48.884;9.160;2023-10-09T16:34:21;23.60;84.90
3466;DHT22;1747;48.884;9.160;2023-10-09T16:36:51;23.40;86.10
3466;DHT22;1747;48.884;9.160;2023-10-09T16:39:18;23.30;87.60
3466;DHT22;1747;48.884;9.160;2023-10-09T16:41:49;23.20;88.40
3466;DHT22;1747;48.884;9.160;2023-10-09T16:44:16;23.10;88.10